createdAt,value
2023-02-16T00:00:40.638Z,99100.66
2023-02-16T00:05:42.405Z,99092.06
2023-02-16T00:11:04.989Z,99099.84
2023-02-16T00:16:17.036Z,99091.44
2023-02-16T00:21:19.300Z,99096.63
2023-02-16T00:26:24.070Z,99090.69
2023-02-16T00:31:29.233Z,99096.72
2023-02-16T00:36:31.291Z,99097.63
2023-02-16T00:41:51.200Z,99101.38
2023-02-16T00:46:53.433Z,99082.72
2023-02-16T00:51:55.348Z,99087.84
2023-02-16T00:56:57.869Z,99088.66
2023-02-16T01:01:59.721Z,99092.97
2023-02-16T01:07:20.390Z,99092.03
2023-02-16T01:12:22.843Z,99087.00
2023-02-16T01:17:25.088Z,99085.38
2023-02-16T01:22:33.958Z,99077.78
2023-02-16T01:27:41.257Z,99071.00
2023-02-16T01:32:43.194Z,99072.00
2023-02-16T01:37:45.022Z,99061.13
2023-02-16T01:42:58.224Z,99059.47
2023-02-16T01:48:06.124Z,99056.19
2023-02-16T01:53:28.803Z,99049.50
2023-02-16T01:58:44.732Z,99054.72
2023-02-16T02:04:05.375Z,99044.47
2023-02-16T02:09:34.138Z,99040.34
2023-02-16T02:14:39.688Z,99041.34
2023-02-16T02:20:14.513Z,99034.59
2023-02-16T02:25:22.399Z,99043.19
2023-02-16T02:31:10.735Z,99052.50
2023-02-16T02:36:28.404Z,99058.63
2023-02-16T02:41:57.454Z,99062.16
2023-02-16T02:47:01.349Z,99059.63
2023-02-16T02:52:03.897Z,99054.66
2023-02-16T02:57:43.849Z,99039.41
2023-02-16T03:02:49.917Z,99035.47
2023-02-16T03:07:57.607Z,99040.50
2023-02-16T03:13:02.028Z,99037.19
2023-02-16T03:18:23.847Z,99044.97
2023-02-16T03:23:44.198Z,99041.66
2023-02-16T03:29:07.987Z,99035.72
2023-02-16T03:34:10.150Z,99031.53
2023-02-16T03:39:13.211Z,99035.00
2023-02-16T03:44:15.619Z,99039.19
2023-02-16T03:49:20.704Z,99035.81
2023-02-16T03:54:22.586Z,99041.75
2023-02-16T03:59:24.505Z,99035.00
2023-02-16T04:04:26.793Z,99029.88
2023-02-16T04:09:28.762Z,99037.47
2023-02-16T04:14:30.613Z,99034.91
2023-02-16T04:19:32.368Z,99034.91
2023-02-16T04:24:34.194Z,99043.31
2023-02-16T04:29:38.850Z,99036.47
2023-02-16T04:34:40.892Z,99048.44
2023-02-16T04:39:42.821Z,99042.41
2023-02-16T04:44:44.783Z,99034.00
2023-02-16T04:49:48.094Z,99024.94
2023-02-16T04:54:51.750Z,99026.91
2023-02-16T04:59:53.559Z,99019.41
2023-02-16T05:04:55.314Z,99027.91
2023-02-16T05:09:57.768Z,99021.06
2023-02-16T05:14:59.523Z,99026.91
2023-02-16T05:20:02.017Z,99031.03
2023-02-16T05:25:04.185Z,99024.03
2023-02-16T05:30:06.596Z,99028.97
2023-02-16T05:35:08.476Z,99032.34
2023-02-16T05:40:10.922Z,99038.19
2023-02-16T05:45:12.897Z,99033.00
2023-02-16T05:50:14.992Z,99044.78
2023-02-16T05:55:16.934Z,99045.53
2023-02-16T06:00:18.995Z,99046.00
2023-02-16T06:05:20.897Z,99049.25
2023-02-16T06:10:27.141Z,99052.91
2023-02-16T06:15:31.845Z,99053.66
2023-02-16T06:20:33.944Z,99050.19
2023-02-16T06:25:36.302Z,99043.16
2023-02-16T06:30:38.372Z,99042.25
2023-02-16T06:35:40.175Z,99051.47
2023-02-16T06:40:42.025Z,99051.13
2023-02-16T06:45:43.913Z,99047.09
2023-02-16T06:50:45.932Z,99050.22
2023-02-16T06:55:50.922Z,99053.78
2023-02-16T07:00:55.502Z,99044.56
2023-02-16T07:05:57.301Z,99039.31
2023-02-16T07:10:59.169Z,99042.88
2023-02-16T07:16:01.107Z,99027.22
2023-02-16T07:21:03.267Z,99037.19
2023-02-16T07:26:05.419Z,99037.19
2023-02-16T07:31:10.215Z,99030.22
2023-02-16T07:36:13.479Z,99020.72
2023-02-16T07:41:17.409Z,99033.16
2023-02-16T07:46:19.217Z,99036.78
2023-02-16T07:51:29.242Z,99044.63
2023-02-16T07:56:35.673Z,99040.75
2023-02-16T08:01:37.864Z,99036.69
2023-02-16T08:06:40.333Z,99036.28
2023-02-16T08:11:42.277Z,99028.00
2023-02-16T08:16:44.267Z,99045.59
2023-02-16T08:21:49.532Z,99052.00
2023-02-16T08:26:53.859Z,99055.13
2023-02-16T08:31:56.931Z,99052.34
2023-02-16T08:36:58.909Z,99046.50
2023-02-16T08:42:01.990Z,99042.47
2023-02-16T08:47:04.114Z,99046.63
2023-02-16T08:52:06.359Z,99034.53
2023-02-16T08:57:08.661Z,99036.25
2023-02-16T09:02:11.558Z,99034.34
2023-02-16T09:07:13.888Z,99035.91
2023-02-16T09:12:15.817Z,99033.53
2023-02-16T09:17:17.642Z,99021.78
2023-02-16T09:22:19.648Z,99014.31
2023-02-16T09:27:21.514Z,99023.94
2023-02-16T09:32:28.054Z,99020.75
2023-02-16T09:37:29.903Z,99019.47
2023-02-16T09:42:50.635Z,99013.09
2023-02-16T09:47:55.206Z,99013.09
2023-02-16T09:53:11.722Z,99004.13
2023-02-16T09:58:22.207Z,99015.34
2023-02-16T10:03:45.955Z,99013.22
2023-02-16T10:08:50.362Z,99012.75
2023-02-16T10:13:57.440Z,99006.84
2023-02-16T10:19:04.236Z,99013.34
2023-02-16T10:24:07.741Z,99011.50
2023-02-16T10:29:20.013Z,99015.56
2023-02-16T10:34:46.478Z,99013.97
2023-02-16T10:40:12.860Z,99011.94
2023-02-16T10:45:15.941Z,99010.38
2023-02-16T10:50:53.787Z,98995.03
2023-02-16T10:55:57.017Z,99000.50
2023-02-16T11:01:10.474Z,98983.16
2023-02-16T11:06:19.219Z,98994.38
2023-02-16T11:11:23.065Z,98989.50
2023-02-16T11:16:25.894Z,98993.22
2023-02-16T11:22:03.295Z,98989.84
2023-02-16T11:27:07.022Z,98978.97
2023-02-16T11:32:12.262Z,98970.78
2023-02-16T11:37:24.472Z,98973.66
2023-02-16T11:42:47.219Z,98967.28
2023-02-16T11:47:55.815Z,98961.97
2023-02-16T11:53:09.659Z,98959.94
2023-02-16T11:58:26.117Z,98946.72
2023-02-16T12:03:48.980Z,98948.22
2023-02-16T12:09:07.075Z,98942.09
2023-02-16T12:14:14.867Z,98931.59
2023-02-16T12:19:28.290Z,98938.16
2023-02-16T12:24:52.556Z,98923.69
2023-02-16T12:30:38.884Z,98928.34
2023-02-16T12:36:27.017Z,98923.44
2023-02-16T12:41:53.638Z,98926.44
2023-02-16T12:47:04.808Z,98918.38
2023-02-16T12:52:11.532Z,98911.16
2023-02-16T12:57:17.460Z,98909.09
2023-02-16T13:02:28.724Z,98897.50
2023-02-16T13:07:40.304Z,98902.41
2023-02-16T13:13:01.084Z,98898.59
2023-02-16T13:18:23.205Z,98895.28
2023-02-16T13:23:37.042Z,98892.44
2023-02-16T13:28:47.773Z,98886.97
2023-02-16T13:34:14.745Z,98884.09
2023-02-16T13:39:34.672Z,98880.25
2023-02-16T13:44:46.153Z,98880.78
2023-02-16T13:49:50.446Z,98878.75
2023-02-16T13:54:52.570Z,98877.63
2023-02-16T14:00:00.542Z,98880.22
2023-02-16T14:05:04.220Z,98888.41
2023-02-16T14:10:06.688Z,98886.75
2023-02-16T14:15:20.625Z,98887.59
2023-02-16T14:20:22.437Z,98890.84
2023-02-16T14:25:24.272Z,98893.56
2023-02-16T14:30:35.662Z,98890.31
2023-02-16T14:35:41.512Z,98888.16
2023-02-16T14:41:01.188Z,98885.97
2023-02-16T14:46:11.044Z,98889.13
2023-02-16T14:51:42.171Z,98901.56
2023-02-16T14:56:54.319Z,98899.53
2023-02-16T15:01:56.969Z,98901.44
2023-02-16T15:07:05.228Z,98910.16
2023-02-16T15:12:21.927Z,98905.41
2023-02-16T15:17:31.887Z,98907.72
2023-02-16T15:22:33.989Z,98903.53
2023-02-16T15:27:35.783Z,98900.66
2023-02-16T15:32:38.083Z,98901.09
2023-02-16T15:37:40.641Z,98883.91
2023-02-16T15:42:45.356Z,98884.88
2023-02-16T15:47:47.222Z,98878.88
2023-02-16T15:52:49.186Z,98884.06
2023-02-16T15:57:51.289Z,98879.84
2023-02-16T16:02:55.838Z,98885.00
2023-02-16T16:07:59.514Z,98876.28
2023-02-16T16:13:07.493Z,98882.94
2023-02-16T16:18:29.346Z,98877.19
2023-02-16T16:23:31.129Z,98888.31
2023-02-16T16:28:36.698Z,98876.59
2023-02-16T16:33:58.777Z,98879.56
2023-02-16T16:39:17.096Z,98876.44
2023-02-16T16:44:48.093Z,98870.44
2023-02-16T16:49:56.395Z,98875.88
2023-02-16T16:54:58.239Z,98880.75
2023-02-16T17:00:00.007Z,98882.66
2023-02-16T17:05:01.784Z,98880.34
2023-02-16T17:10:05.309Z,98867.28
2023-02-16T17:15:14.486Z,98870.44
2023-02-16T17:20:16.947Z,98871.09
2023-02-16T17:25:19.459Z,98878.19
2023-02-16T17:30:24.604Z,98872.31
2023-02-16T17:35:26.606Z,98876.41
2023-02-16T17:40:28.487Z,98872.88
2023-02-16T17:45:30.366Z,98865.81
2023-02-16T17:50:33.159Z,98863.09
2023-02-16T17:55:34.968Z,98866.38
2023-02-16T18:00:38.240Z,98855.22
2023-02-16T18:05:40.268Z,98850.84
2023-02-16T18:10:45.219Z,98846.91
2023-02-16T18:15:49.317Z,98847.03
2023-02-16T18:20:51.226Z,98856.56
2023-02-16T18:25:53.178Z,98859.13
2023-02-16T18:30:55.150Z,98862.41
2023-02-16T18:35:57.679Z,98858.75
2023-02-16T18:40:59.626Z,98859.44
2023-02-16T18:46:06.543Z,98855.63
2023-02-16T18:51:10.027Z,98867.47
2023-02-16T18:56:12.525Z,98867.47
2023-02-16T19:01:22.732Z,98860.66
2023-02-16T19:06:24.977Z,98862.31
2023-02-16T19:11:28.893Z,98863.13
2023-02-16T19:16:30.863Z,98869.94
2023-02-16T19:21:33.137Z,98865.84
2023-02-16T19:26:34.930Z,98871.97
2023-02-16T19:31:37.207Z,98881.34
2023-02-16T19:36:39.644Z,98866.91
2023-02-16T19:41:46.240Z,98859.97
2023-02-16T19:46:48.096Z,98857.53
2023-02-16T19:51:50.613Z,98859.28
2023-02-16T19:56:54.197Z,98860.94
2023-02-16T20:01:56.011Z,98854.13
2023-02-16T20:06:57.973Z,98861.75
2023-02-16T20:12:00.021Z,98864.19
2023-02-16T20:17:03.855Z,98864.06
2023-02-16T20:22:05.708Z,98865.84
2023-02-16T20:27:07.599Z,98867.75
2023-02-16T20:32:09.508Z,98865.84
2023-02-16T20:37:11.454Z,98861.63
2023-02-16T20:42:13.506Z,98868.56
2023-02-16T20:47:16.024Z,98865.84
2023-02-16T20:52:18.005Z,98863.25
2023-02-16T20:57:27.141Z,98867.47
2023-02-16T21:02:29.481Z,98866.53
2023-02-16T21:07:31.244Z,98862.84
2023-02-16T21:12:32.999Z,98859.19
2023-02-16T21:17:34.825Z,98847.06
2023-02-16T21:22:36.708Z,98848.56
2023-02-16T21:27:38.608Z,98851.16
2023-02-16T21:32:40.373Z,98835.66
2023-02-16T21:37:42.550Z,98827.06
2023-02-16T21:42:44.605Z,98822.03
2023-02-16T21:48:05.694Z,98821.09
2023-02-16T21:53:09.268Z,98817.56
2023-02-16T21:58:11.659Z,98821.63
2023-02-16T22:03:14.356Z,98806.00
2023-02-16T22:08:16.208Z,98804.09
2023-02-16T22:13:17.993Z,98809.97
2023-02-16T22:18:19.739Z,98809.69
2023-02-16T22:23:21.558Z,98805.22
2023-02-16T22:28:23.444Z,98804.13
2023-02-16T22:33:25.357Z,98795.41
2023-02-16T22:38:27.122Z,98790.94
2023-02-16T22:43:28.845Z,98802.91
2023-02-16T22:48:30.616Z,98795.00
2023-02-16T22:53:33.085Z,98787.25
2023-02-16T22:58:36.116Z,98783.72
2023-02-16T23:03:37.982Z,98772.28
2023-02-16T23:08:39.696Z,98759.34
2023-02-16T23:13:41.478Z,98750.91
2023-02-16T23:18:44.644Z,98744.78
2023-02-16T23:23:47.479Z,98736.63
2023-02-16T23:28:54.769Z,98736.06
2023-02-16T23:33:57.169Z,98732.00
2023-02-16T23:39:06.849Z,98729.53
2023-02-16T23:44:12.131Z,98731.31
2023-02-16T23:49:14.150Z,98720.84
2023-02-16T23:54:15.887Z,98718.38
2023-02-16T23:59:17.617Z,98710.50
